Time;durP1;ratioP1;P1;durP2;ratioP2;P2;SDS_P1;SDS_P2;PMS_P1;PMS_P2;Temp;Humidity;BMP_temperature;BMP_pressure;BME280_temperature;BME280_humidity;BME280_pressure;Samples;Min_cycle;Max_cycle;Signal;HPM_P1;HPM_P2
2022/05/27 04:32:33;;;;;;;2.90;1.33;;;21.70;99.90;;;;;;6060552;22;1237449;-67
2022/05/27 04:34:59;;;;;;;4.53;0.90;;;21.70;99.90;;;;;;6157133;22;20479;-67
2022/05/27 04:37:27;;;;;;;1.35;0.60;;;21.70;99.90;;;;;;6156215;22;20025;-67
2022/05/27 04:39:53;;;;;;;2.25;0.68;;;21.70;99.90;;;;;;6156903;23;20100;-67
2022/05/27 04:42:20;;;;;;;4.95;1.10;;;21.70;99.90;;;;;;6132418;23;20060;-67
2022/05/27 04:44:47;;;;;;;2.55;1.00;;;21.70;99.90;;;;;;6127819;23;20085;-67
2022/05/27 04:47:14;;;;;;;4.35;1.60;;;21.80;99.90;;;;;;6127614;23;20351;-67
2022/05/27 04:49:50;;;;;;;2.30;1.05;;;21.80;99.90;;;;;;6126908;23;20352;-66
2022/05/27 04:52:26;;;;;;;1.95;0.95;;;21.80;99.90;;;;;;6127252;23;20089;-66
2022/05/27 04:54:54;;;;;;;6.15;0.90;;;21.80;99.90;;;;;;6127461;23;20352;-66
2022/05/27 04:57:26;;;;;;;1.15;1.00;;;21.80;99.90;;;;;;6127847;23;20034;-69
2022/05/27 04:59:53;;;;;;;2.15;0.70;;;21.90;99.90;;;;;;6120372;23;20061;-67
2022/05/27 05:02:21;;;;;;;0.98;0.52;;;21.90;99.90;;;;;;6121046;23;20026;-67
2022/05/27 05:04:49;;;;;;;3.60;1.15;;;21.90;99.90;;;;;;6121164;23;20029;-67
2022/05/27 05:07:16;;;;;;;1.58;0.70;;;21.90;99.90;;;;;;6120823;23;20057;-67
2022/05/27 05:09:43;;;;;;;7.75;0.95;;;21.90;99.90;;;;;;6120950;23;20100;-68
2022/05/27 05:12:12;;;;;;;5.38;1.02;;;22.00;99.90;;;;;;6120846;23;20089;-67
2022/05/27 05:14:40;;;;;;;4.25;0.90;;;22.00;99.90;;;;;;6121305;23;20018;-67
2022/05/27 05:17:07;;;;;;;3.75;0.80;;;22.00;99.90;;;;;;6121036;23;20029;-67
2022/05/27 05:19:35;;;;;;;5.68;0.80;;;22.00;99.90;;;;;;6119814;23;20022;-67
2022/05/27 05:22:02;;;;;;;4.78;0.90;;;22.00;99.90;;;;;;6119496;23;20396;-67
2022/05/27 05:24:29;;;;;;;3.92;0.70;;;22.00;99.90;;;;;;6120652;23;20356;-67
2022/05/27 05:26:55;;;;;;;1.42;0.80;;;22.00;99.90;;;;;;6120533;23;20022;-69
2022/05/27 05:29:22;;;;;;;1.65;1.02;;;21.90;99.90;;;;;;6120716;23;20022;-67
2022/05/27 05:31:49;;;;;;;3.53;0.75;;;22.00;99.90;;;;;;6120285;23;20018;-67
2022/05/27 05:34:15;;;;;;;4.07;0.70;;;22.00;99.90;;;;;;6120592;23;20033;-66
2022/05/27 05:36:42;;;;;;;6.05;0.73;;;22.00;99.90;;;;;;6120744;23;20033;-66
2022/05/27 05:39:09;;;;;;;6.00;1.00;;;22.00;99.90;;;;;;6120199;23;20382;-67
2022/05/27 05:41:39;;;;;;;7.75;1.20;;;21.90;99.90;;;;;;6120166;23;20288;-67
2022/05/27 05:45:43;;;;;;;8.32;1.10;;;22.00;99.90;;;;;;4986001;27;20391;-68
2022/05/27 05:48:10;;;;;;;9.40;1.30;;;22.00;99.90;;;;;;5034355;28;20124;-75
2022/05/27 05:50:37;;;;;;;59.83;4.03;;;22.00;99.90;;;;;;5046651;28;20120;-80
2022/05/27 05:53:10;;;;;;;1.70;0.98;;;21.10;99.90;;;;;;5024525;28;20484;-81
2022/05/27 05:55:40;;;;;;;3.53;1.38;;;20.30;99.90;;;;;;5043259;28;20064;-80
2022/05/27 05:58:10;;;;;;;7.05;1.58;;;19.60;99.90;;;;;;5039255;28;20052;-81
2022/05/27 06:00:40;;;;;;;4.88;1.67;;;19.10;99.90;;;;;;5076233;28;20094;-80
2022/05/27 06:03:10;;;;;;;4.40;1.48;;;18.60;99.90;;;;;;5063997;28;20083;-82
2022/05/27 06:05:40;;;;;;;3.15;1.52;;;18.30;99.90;;;;;;5059379;28;20084;-82
2022/05/27 06:08:14;;;;;;;2.90;1.30;;;18.00;99.90;;;;;;5067053;28;20044;-83
2022/05/27 06:10:51;;;;;;;3.08;1.50;;;17.80;99.90;;;;;;5076443;28;20412;-81
2022/05/27 06:13:18;;;;;;;2.65;1.80;;;17.70;99.90;;;;;;5059043;28;20049;-81
2022/05/27 06:15:46;;;;;;;3.65;1.60;;;17.60;99.90;;;;;;5065950;28;20048;-82
2022/05/27 06:18:21;;;;;;;4.05;1.60;;;17.50;99.90;;;;;;5079267;28;20074;-83
2022/05/27 06:20:52;;;;;;;2.42;1.30;;;17.50;99.90;;;;;;5078408;28;20653;-82
2022/05/27 06:23:28;;;;;;;5.32;1.70;;;17.50;99.90;;;;;;5075344;28;20050;-83
2022/05/27 06:25:59;;;;;;;2.47;1.38;;;17.50;99.90;;;;;;5076205;28;20049;-81
2022/05/27 06:37:10;;;;;;;3.88;1.50;;;17.40;99.90;;;;;;5070701;28;20103;-81
2022/05/27 06:39:46;;;;;;;7.55;2.25;;;17.40;99.90;;;;;;5080100;28;20057;-81
2022/05/27 06:42:19;;;;;;;5.82;1.50;;;17.40;99.90;;;;;;5080398;28;20053;-83
2022/05/27 06:45:06;;;;;;;3.58;1.60;;;17.40;99.90;;;;;;5058060;28;20063;-80
2022/05/27 06:47:34;;;;;;;2.55;1.42;;;17.50;99.90;;;;;;5059293;28;20045;-80
2022/05/27 06:50:07;;;;;;;2.65;1.55;;;17.40;99.90;;;;;;5059344;28;20049;-80
2022/05/27 06:52:34;;;;;;;2.70;1.42;;;17.50;99.90;;;;;;5064648;28;20097;-81
2022/05/27 06:55:02;;;;;;;2.47;1.30;;;17.60;99.90;;;;;;5079186;28;20078;-81
2022/05/27 06:57:32;;;;;;;4.47;1.55;;;17.60;99.90;;;;;;5047902;28;20507;-79
2022/05/27 07:00:07;;;;;;;2.97;1.27;;;17.50;99.90;;;;;;5043002;28;20053;-81
2022/05/27 07:02:44;;;;;;;4.50;1.30;;;17.50;99.90;;;;;;5067766;28;20512;-82
2022/05/27 07:05:17;;;;;;;4.20;1.65;;;17.50;99.90;;;;;;5063910;28;20095;-82
2022/05/27 07:07:51;;;;;;;2.75;0.95;;;17.50;99.90;;;;;;5044112;28;20411;-81
2022/05/27 07:10:21;;;;;;;4.65;1.60;;;17.50;99.90;;;;;;5042291;28;20077;-80
2022/05/27 07:12:51;;;;;;;3.28;1.55;;;17.60;99.90;;;;;;5048600;28;20395;-81
2022/05/27 07:15:18;;;;;;;;;;;17.70;99.90;;;;;;5067606;28;20059;-80
2022/05/27 07:17:53;;;;;;;2.47;1.35;;;17.70;99.90;;;;;;5057537;28;19971;-81
2022/05/27 07:20:23;;;;;;;4.60;1.50;;;17.70;99.90;;;;;;5063071;28;20053;-79
2022/05/27 07:22:59;;;;;;;2.30;1.38;;;17.70;99.90;;;;;;5068276;28;20114;-82
2022/05/27 07:25:26;;;;;;;3.53;1.30;;;17.80;99.90;;;;;;5060664;28;20046;-80
2022/05/27 07:28:11;;;;;;;4.05;1.23;;;17.80;99.90;;;;;;5062877;28;20048;-82
2022/05/27 07:30:38;;;;;;;2.97;1.42;;;17.80;99.90;;;;;;5063741;28;20110;-81
2022/05/27 07:33:09;;;;;;;2.72;1.60;;;17.80;99.90;;;;;;5048040;28;20046;-79
2022/05/27 07:35:38;;;;;;;4.38;1.35;;;17.80;99.90;;;;;;5047288;28;20414;-81
2022/05/27 07:38:08;;;;;;;2.97;1.45;;;17.80;99.90;;;;;;5047122;28;20557;-81
2022/05/27 07:40:35;;;;;;;3.63;1.50;;;18.10;99.90;;;;;;5065810;28;20057;-81
2022/05/27 07:43:03;;;;;;;1.95;1.17;;;18.30;99.90;;;;;;5059751;28;20204;-81
2022/05/27 07:45:38;;;;;;;1.38;1.00;;;18.60;99.90;;;;;;5070605;28;20523;-84
2022/05/27 07:48:09;;;;;;;2.28;1.25;;;19.00;99.90;;;;;;5059388;28;20138;-81
2022/05/27 07:50:45;;;;;;;1.75;1.20;;;19.20;99.90;;;;;;5043505;28;20055;-81
2022/05/27 07:53:23;;;;;;;3.60;1.35;;;19.40;99.90;;;;;;5048351;28;20049;-81
2022/05/27 07:55:53;;;;;;;2.58;1.33;;;19.70;99.90;;;;;;5046876;28;20053;-81
2022/05/27 07:58:27;;;;;;;2.70;1.27;;;19.80;99.90;;;;;;5047787;28;20060;-81
2022/05/27 08:00:56;;;;;;;1.75;1.10;;;19.90;99.90;;;;;;5049221;28;20061;-81
2022/05/27 08:03:24;;;;;;;1.98;0.85;;;20.10;99.90;;;;;;5065931;28;20052;-83
2022/05/27 08:05:55;;;;;;;0.93;0.90;;;20.10;99.90;;;;;;5061641;28;20049;-83
2022/05/27 08:08:30;;;;;;;1.67;0.60;;;20.10;99.90;;;;;;5052788;28;20073;-82
2022/05/27 08:11:03;;;;;;;1.95;0.85;;;20.10;99.90;;;;;;5077585;22;20163;-82
2022/05/27 08:13:34;;;;;;;1.40;0.95;;;20.10;99.90;;;;;;5059344;28;20086;-81
2022/05/27 08:16:04;;;;;;;3.75;1.00;;;20.10;99.90;;;;;;5050611;28;20123;-80
2022/05/27 08:18:37;;;;;;;1.98;0.90;;;20.00;99.90;;;;;;5054523;28;20057;-81
2022/05/27 08:21:14;;;;;;;7.07;0.90;;;20.00;99.90;;;;;;5053392;28;20502;-81
2022/05/27 08:23:47;;;;;;;1.55;0.85;;;19.90;99.90;;;;;;5048997;28;20049;-81
2022/05/27 08:26:23;;;;;;;2.65;0.77;;;19.90;99.90;;;;;;5044195;28;20415;-83
2022/05/27 08:29:06;;;;;;;1.83;0.70;;;20.10;99.90;;;;;;5047733;28;20056;-81
2022/05/27 08:31:43;;;;;;;5.55;0.80;;;20.20;99.90;;;;;;5047213;28;20169;-84
2022/05/27 08:39:58;;;;;;;1.98;0.70;;;20.30;99.90;;;;;;5055873;28;20425;-81
2022/05/27 08:42:48;;;;;;;5.78;1.20;;;20.30;99.90;;;;;;5044112;28;20143;-82
2022/05/27 08:45:45;;;;;;;1.85;0.70;;;20.40;99.90;;;;;;5045773;28;20076;-80
2022/05/27 08:48:22;;;;;;;2.35;0.68;;;20.40;99.90;;;;;;5045928;28;20457;-82
2022/05/27 08:50:54;;;;;;;1.15;0.70;;;20.40;99.90;;;;;;5056778;28;20494;-81
2022/05/27 08:53:45;;;;;;;3.55;1.20;;;20.40;99.90;;;;;;5051313;28;20053;-82
2022/05/27 08:59:31;;;;;;;1.45;0.88;;;20.70;99.90;;;;;;5068708;28;20106;-81
2022/05/27 09:02:31;;;;;;;2.85;0.57;;;20.80;99.90;;;;;;5049035;28;20135;-81
2022/05/27 09:05:17;;;;;;;2.17;0.88;;;20.80;99.90;;;;;;5051850;28;20048;-82
2022/05/27 09:08:11;;;;;;;4.05;0.75;;;20.90;99.90;;;;;;5052651;28;20056;-81
2022/05/27 09:11:19;;;;;;;0.77;0.50;;;20.90;99.90;;;;;;5056857;28;20068;-80
2022/05/27 09:14:29;;;;;;;1.08;0.80;;;20.70;99.90;;;;;;5054505;28;20069;-82
2022/05/27 09:17:11;;;;;;;3.63;1.00;;;20.70;99.90;;;;;;5030737;28;20052;-83
2022/05/27 09:19:55;;;;;;;3.20;1.52;;;20.60;99.90;;;;;;5058657;28;20052;-83
2022/05/27 09:22:34;;;;;;;3.30;1.58;;;20.50;99.90;;;;;;5075566;22;20065;-82
2022/05/27 09:25:10;;;;;;;2.50;1.00;;;20.50;99.90;;;;;;5030156;28;20049;-82
2022/05/27 09:27:59;;;;;;;1.08;0.68;;;20.60;99.90;;;;;;5026877;28;20045;-81
2022/05/27 09:33:07;;;;;;;2.53;0.80;;;21.00;99.90;;;;;;5066503;28;20051;-81
2022/05/27 09:35:47;;;;;;;3.28;0.88;;;21.10;99.90;;;;;;5053091;28;20064;-82
2022/05/27 09:38:28;;;;;;;3.92;1.05;;;21.10;99.90;;;;;;5053883;28;20045;-81
2022/05/27 09:41:01;;;;;;;1.20;0.70;;;21.10;99.90;;;;;;5052829;28;20095;-80
2022/05/27 09:43:49;;;;;;;1.35;0.75;;;21.20;99.90;;;;;;5052221;28;20045;-81
2022/05/27 09:46:30;;;;;;;1.48;1.00;;;21.20;99.90;;;;;;5051925;28;20115;-81
2022/05/27 09:49:06;;;;;;;0.80;0.55;;;21.30;99.90;;;;;;5045881;28;20148;-82
2022/05/27 09:51:36;;;;;;;2.15;0.95;;;21.30;99.90;;;;;;5051998;28;20059;-80
2022/05/27 09:54:15;;;;;;;2.20;0.80;;;21.30;99.90;;;;;;5053441;28;20498;-81
2022/05/27 09:57:04;;;;;;;1.80;0.77;;;21.30;99.90;;;;;;5048416;28;20119;-82
2022/05/27 09:59:58;;;;;;;1.30;0.75;;;21.30;99.90;;;;;;5044819;28;20057;-81
2022/05/27 10:02:35;;;;;;;2.05;1.05;;;21.30;99.90;;;;;;5046459;28;20541;-80
2022/05/27 10:05:22;;;;;;;4.60;0.80;;;21.30;99.90;;;;;;5054694;28;20060;-81
2022/05/27 10:08:05;;;;;;;6.30;1.05;;;21.40;99.90;;;;;;5054485;28;20067;-81
2022/05/27 10:10:40;;;;;;;3.40;0.77;;;21.50;99.90;;;;;;5054578;28;20102;-83
2022/05/27 10:13:24;;;;;;;3.17;0.85;;;21.60;99.90;;;;;;5055006;28;20075;-82
2022/05/27 10:16:13;;;;;;;1.92;0.70;;;21.80;99.90;;;;;;5048386;28;20139;-82
2022/05/27 10:18:46;;;;;;;3.75;0.70;;;21.90;99.90;;;;;;5046505;28;20063;-82
2022/05/27 10:21:23;;;;;;;2.53;0.68;;;22.00;99.90;;;;;;5047123;28;20037;-82
2022/05/27 10:23:54;;;;;;;7.28;0.70;;;21.90;99.90;;;;;;5052451;28;20045;-80
2022/05/27 10:26:32;;;;;;;1.23;0.80;;;21.90;99.90;;;;;;5055599;28;20044;-81
2022/05/27 10:29:12;;;;;;;5.72;1.02;;;21.80;99.90;;;;;;5055105;28;20045;-83
2022/05/27 10:31:51;;;;;;;2.00;0.60;;;21.80;99.90;;;;;;5048150;28;20083;-82
2022/05/27 10:34:48;;;;;;;5.35;0.82;;;21.70;99.90;;;;;;5067352;28;20421;-82
2022/05/27 10:37:23;;;;;;;2.60;0.60;;;21.40;99.90;;;;;;5052577;28;20048;-80
2022/05/27 10:40:34;;;;;;;2.90;0.80;;;21.30;99.90;;;;;;5060178;28;20056;-81
2022/05/27 10:43:19;;;;;;;1.38;0.60;;;21.20;99.90;;;;;;5047408;28;20044;-85
2022/05/27 10:45:52;;;;;;;5.30;0.70;;;21.30;99.90;;;;;;5051394;28;20417;-83
2022/05/27 10:48:44;;;;;;;2.72;0.60;;;21.50;99.90;;;;;;5047265;28;20059;-81
2022/05/27 10:51:11;;;;;;;2.20;0.57;;;21.60;99.90;;;;;;5067448;28;20048;-80
2022/05/27 10:54:16;;;;;;;0.50;0.50;;;21.70;99.90;;;;;;5058924;28;20098;-80
2022/05/27 11:03:13;;;;;;;2.13;0.70;;;21.60;99.90;;;;;;5047929;28;20132;-80
2022/05/27 11:06:11;;;;;;;1.67;0.88;;;21.50;99.90;;;;;;5058530;28;20053;-81
2022/05/27 11:08:55;;;;;;;2.40;0.70;;;21.40;99.90;;;;;;5079592;28;20061;-81
2022/05/27 11:11:46;;;;;;;0.80;0.63;;;21.40;99.90;;;;;;5077857;28;20490;-81
2022/05/27 11:17:49;;;;;;;2.63;0.80;;;21.30;99.90;;;;;;5045166;28;20042;-82
2022/05/27 11:20:41;;;;;;;2.50;0.88;;;21.50;99.90;;;;;;5046264;28;20053;-79
2022/05/27 11:23:46;;;;;;;2.60;0.75;;;21.70;99.90;;;;;;5047599;28;20049;-81
2022/05/27 11:26:20;;;;;;;1.48;0.63;;;21.90;99.90;;;;;;5046199;28;20095;-81
2022/05/27 11:29:23;;;;;;;1.48;0.70;;;22.10;99.90;;;;;;5045209;28;20424;-82
2022/05/27 11:31:57;;;;;;;2.67;0.82;;;22.30;99.90;;;;;;5061886;28;20052;-81
2022/05/27 11:34:34;;;;;;;0.77;0.60;;;22.40;99.90;;;;;;5046186;28;20054;-81
2022/05/27 11:37:10;;;;;;;2.00;0.88;;;22.40;99.90;;;;;;5052222;28;20060;-83
2022/05/27 11:40:07;;;;;;;3.10;0.75;;;22.20;99.90;;;;;;5060445;28;20061;-81
2022/05/27 11:42:38;;;;;;;2.30;0.90;;;22.20;99.90;;;;;;5053250;28;20494;-81
2022/05/27 11:45:17;;;;;;;1.38;0.82;;;22.00;99.90;;;;;;5047661;28;20053;-80
2022/05/27 11:48:14;;;;;;;1.55;0.50;;;22.00;99.90;;;;;;5060525;28;20129;-82
2022/05/27 11:51:05;;;;;;;;;;;21.90;99.90;;;;;;5050768;28;20453;-81
2022/05/27 11:53:41;;;;;;;2.67;0.80;;;21.80;99.90;;;;;;5043585;28;19947;-80
2022/05/27 11:56:34;;;;;;;3.42;1.10;;;21.80;99.90;;;;;;5044236;28;20077;-81
2022/05/27 11:59:18;;;;;;;1.38;0.90;;;21.90;99.90;;;;;;5043786;28;20050;-81
2022/05/27 12:02:03;;;;;;;2.65;1.20;;;22.10;99.90;;;;;;5042943;28;20057;-81
2022/05/27 12:04:52;;;;;;;2.30;0.80;;;22.10;99.90;;;;;;5049357;28;20463;-81
2022/05/27 12:07:38;;;;;;;1.63;0.82;;;22.30;99.90;;;;;;5045270;28;20422;-81
2022/05/27 12:10:17;;;;;;;1.38;0.93;;;22.50;99.90;;;;;;5050125;28;20053;-81
2022/05/27 12:13:25;;;;;;;2.97;0.90;;;22.70;99.90;;;;;;5044238;28;20132;-80
2022/05/27 12:16:04;;;;;;;1.30;0.80;;;22.80;99.90;;;;;;5042783;28;20057;-81
2022/05/27 12:18:51;;;;;;;4.30;0.93;;;22.80;99.90;;;;;;5051160;28;20057;-81
2022/05/27 12:21:24;;;;;;;3.72;1.40;;;22.80;99.90;;;;;;5048497;28;20057;-81
2022/05/27 12:23:59;;;;;;;2.55;1.25;;;22.80;99.90;;;;;;5051426;28;20096;-81
2022/05/27 12:26:30;;;;;;;3.13;1.73;;;23.00;99.90;;;;;;5052611;28;20504;-83
2022/05/27 12:29:00;;;;;;;3.30;0.73;;;23.10;99.90;;;;;;5046782;28;20103;-82
2022/05/27 12:31:29;;;;;;;;;;;23.10;99.90;;;;;;5052605;28;20378;-82
2022/05/27 12:33:56;;;;;;;2.20;0.70;;;23.20;99.90;;;;;;5054310;28;19943;-82
2022/05/27 12:36:26;;;;;;;2.85;1.00;;;23.20;99.90;;;;;;5041050;28;20400;-84
2022/05/27 12:38:57;;;;;;;2.03;0.80;;;23.20;99.90;;;;;;5037440;28;20095;-85
2022/05/27 12:41:31;;;;;;;2.17;1.17;;;23.10;99.90;;;;;;5053443;28;20049;-83
2022/05/27 12:44:09;;;;;;;1.52;0.82;;;23.00;99.90;;;;;;5079307;28;20053;-83
2022/05/27 12:46:44;;;;;;;2.30;0.80;;;23.00;99.90;;;;;;5051576;28;20049;-85
2022/05/27 12:49:51;;;;;;;2.85;0.90;;;22.90;99.90;;;;;;5047546;28;20134;-84
2022/05/27 12:52:30;;;;;;;3.85;0.70;;;22.80;99.90;;;;;;5039900;28;20053;-84
2022/05/27 12:54:57;;;;;;;3.13;1.10;;;22.90;99.90;;;;;;5046879;28;20049;-83
2022/05/27 13:03:40;;;;;;;0.70;0.63;;;23.00;99.90;;;;;;5056294;28;20045;-87
2022/05/27 13:06:14;;;;;;;2.63;0.73;;;23.00;99.90;;;;;;5045470;28;20466;-82
2022/05/27 13:09:00;;;;;;;2.33;0.80;;;22.90;99.90;;;;;;5044094;28;20049;-84
2022/05/27 13:11:39;;;;;;;5.22;1.23;;;22.90;99.90;;;;;;5037834;28;20064;-83
2022/05/27 13:14:17;;;;;;;1.77;0.95;;;23.00;99.90;;;;;;5045683;28;20095;-84
2022/05/27 13:17:32;;;;;;;2.17;0.70;;;23.20;99.90;;;;;;5050025;28;20107;-83
2022/05/27 13:20:02;;;;;;;4.78;0.85;;;23.40;99.90;;;;;;5042242;28;20103;-83
2022/05/27 13:22:49;;;;;;;3.80;0.65;;;23.50;99.90;;;;;;5047469;28;20065;-84
2022/05/27 13:25:26;;;;;;;1.27;0.80;;;23.40;99.90;;;;;;5045492;28;20098;-82
2022/05/27 13:27:57;;;;;;;1.58;0.73;;;23.50;99.90;;;;;;5044983;28;20045;-82
2022/05/27 13:31:02;;;;;;;4.53;1.10;;;23.40;99.90;;;;;;5058539;28;20049;-81
2022/05/27 13:33:37;;;;;;;4.00;0.98;;;23.40;99.90;;;;;;5074128;28;20053;-82
2022/05/27 13:36:18;;;;;;;1.60;0.90;;;23.40;99.90;;;;;;5042327;28;20545;-83
2022/05/27 13:39:01;;;;;;;4.38;0.80;;;23.30;99.90;;;;;;5046100;28;20506;-82
2022/05/27 13:41:38;;;;;;;4.32;0.80;;;23.40;99.90;;;;;;5048484;28;20053;-83
2022/05/27 13:44:06;;;;;;;2.00;0.90;;;23.50;99.90;;;;;;5052463;28;20072;-82
2022/05/27 13:46:40;;;;;;;3.42;1.40;;;23.60;99.90;;;;;;5070075;28;20044;-87
2022/05/27 13:49:28;;;;;;;8.07;1.17;;;23.80;99.90;;;;;;5076329;28;20055;-86
2022/05/27 13:51:55;;;;;;;2.60;0.93;;;24.00;99.90;;;;;;5068484;28;20037;-87
2022/05/27 13:54:35;;;;;;;1.33;1.00;;;24.20;99.90;;;;;;5069232;28;20040;-87
2022/05/27 13:57:05;;;;;;;3.75;1.00;;;24.30;99.90;;;;;;5059363;28;20127;-82
2022/05/27 13:59:42;;;;;;;10.73;2.20;;;24.30;99.90;;;;;;5040920;28;20050;-82
2022/05/27 14:02:21;;;;;;;4.38;0.80;;;24.40;99.90;;;;;;5041508;28;20203;-82
2022/05/27 14:04:53;;;;;;;28.42;5.68;;;24.30;99.90;;;;;;5043713;28;20045;-82
2022/05/27 14:07:27;;;;;;;29.80;5.13;;;24.20;99.90;;;;;;5059094;28;20045;-82
2022/05/27 14:09:59;;;;;;;23.45;6.45;;;24.20;99.90;;;;;;5049751;28;20083;-82
2022/05/27 14:12:37;;;;;;;36.70;7.78;;;24.10;99.90;;;;;;5051712;28;20044;-82
2022/05/27 14:15:26;;;;;;;26.73;6.43;;;24.00;99.90;;;;;;5049032;28;20056;-82
2022/05/27 14:17:54;;;;;;;39.72;5.93;;;24.00;99.90;;;;;;5044736;28;20049;-82
2022/05/27 14:20:29;;;;;;;11.82;2.53;;;24.00;99.90;;;;;;5064460;28;20136;-82
2022/05/27 14:23:04;;;;;;;24.73;3.72;;;24.00;99.90;;;;;;5048554;28;20418;-82
2022/05/27 14:25:41;;;;;;;5.70;1.25;;;24.00;99.90;;;;;;5047071;28;20060;-82
2022/05/27 14:28:29;;;;;;;13.02;1.30;;;24.00;99.90;;;;;;5062166;28;20041;-85
2022/05/27 14:31:08;;;;;;;2.92;0.70;;;23.90;99.90;;;;;;5052429;28;20052;-82
2022/05/27 14:33:42;;;;;;;;;;;23.90;99.90;;;;;;5052164;28;20045;-82
2022/05/27 14:36:11;;;;;;;6.97;1.17;;;23.90;99.90;;;;;;5053874;28;20008;-83
2022/05/27 14:38:40;;;;;;;4.07;0.75;;;23.90;99.90;;;;;;5045033;28;20137;-82
2022/05/27 14:41:14;;;;;;;1.08;0.57;;;23.90;99.90;;;;;;5045546;28;20554;-84
2022/05/27 14:43:48;;;;;;;8.75;0.88;;;23.80;99.90;;;;;;5049045;28;20451;-83
2022/05/27 14:46:15;;;;;;;3.85;1.38;;;23.80;99.90;;;;;;5055748;28;20478;-82
2022/05/27 14:48:43;;;;;;;2.17;0.80;;;23.70;99.90;;;;;;5050441;28;20051;-81
2022/05/27 14:51:33;;;;;;;2.22;1.00;;;23.70;99.90;;;;;;5044889;28;20060;-81
2022/05/27 14:54:15;;;;;;;2.20;0.90;;;23.60;99.90;;;;;;5046914;28;20119;-81
2022/05/27 14:56:42;;;;;;;4.47;0.80;;;23.40;99.90;;;;;;5049474;28;20053;-81
2022/05/27 14:59:17;;;;;;;2.72;1.00;;;22.90;99.90;;;;;;5054566;28;20128;-81
2022/05/27 15:01:50;;;;;;;1.85;1.10;;;22.70;99.90;;;;;;5053916;28;20053;-81
2022/05/27 15:04:29;;;;;;;2.80;0.90;;;22.40;99.90;;;;;;5061002;28;20422;-81
2022/05/27 15:07:16;;;;;;;3.28;1.00;;;22.30;99.90;;;;;;5051554;28;20053;-83
2022/05/27 15:09:43;;;;;;;2.45;0.80;;;22.20;99.90;;;;;;5047836;28;20091;-82
2022/05/27 15:12:23;;;;;;;2.92;1.00;;;22.10;99.90;;;;;;5061145;28;20413;-83
2022/05/27 15:14:49;;;;;;;;;;;22.10;99.90;;;;;;5053120;28;20055;-84
2022/05/27 15:17:21;;;;;;;2.75;0.90;;;22.00;99.90;;;;;;5044248;28;20324;-84
2022/05/27 15:19:54;;;;;;;1.50;0.70;;;21.90;99.90;;;;;;5047032;28;20509;-83
2022/05/27 15:22:22;;;;;;;4.13;1.10;;;21.80;99.90;;;;;;5048223;28;20048;-83
2022/05/27 15:25:01;;;;;;;3.88;1.63;;;21.80;99.90;;;;;;5047460;28;20118;-83
2022/05/27 15:33:27;;;;;;;1.33;0.90;;;21.50;99.90;;;;;;5045164;28;20045;-81
2022/05/27 15:35:56;;;;;;;1.73;0.82;;;21.40;99.90;;;;;;5046046;28;20047;-81
2022/05/27 15:38:25;;;;;;;2.08;0.65;;;21.50;99.90;;;;;;5047890;28;20044;-81
2022/05/27 15:40:53;;;;;;;3.72;1.08;;;21.40;99.90;;;;;;5038798;28;20060;-81
2022/05/27 15:43:23;;;;;;;3.83;0.90;;;21.40;99.90;;;;;;5045431;28;25115;-82
2022/05/27 15:45:51;;;;;;;2.58;0.80;;;21.30;99.90;;;;;;5042873;28;20083;-81
2022/05/27 15:48:19;;;;;;;2.95;0.73;;;21.30;99.90;;;;;;5044871;28;20052;-82
2022/05/27 15:50:47;;;;;;;5.65;1.60;;;21.30;99.90;;;;;;5047082;28;20045;-81
2022/05/27 15:53:17;;;;;;;2.17;1.15;;;21.20;99.90;;;;;;5052504;28;20095;-83
2022/05/27 15:55:44;;;;;;;1.77;1.02;;;21.10;99.90;;;;;;5053366;28;20413;-82
2022/05/27 15:58:11;;;;;;;1.23;1.10;;;21.10;99.90;;;;;;5044839;28;20109;-83
2022/05/27 16:00:39;;;;;;;25.88;14.20;;;21.00;99.90;;;;;;5039844;28;20123;-81
2022/05/27 16:03:07;;;;;;;15.45;9.38;;;20.90;99.90;;;;;;5045677;28;20498;-81
2022/05/27 16:05:39;;;;;;;8.30;4.95;;;20.90;99.90;;;;;;5049205;28;20492;-83
2022/05/27 16:08:06;;;;;;;6.10;2.75;;;20.90;99.90;;;;;;5038918;28;20095;-82
2022/05/27 16:10:33;;;;;;;8.55;4.57;;;20.90;99.90;;;;;;5062722;28;20049;-81
2022/05/27 16:13:01;;;;;;;4.40;1.30;;;20.80;99.90;;;;;;5072524;22;20045;-80
2022/05/27 16:15:28;;;;;;;5.95;2.72;;;20.80;99.90;;;;;;5062388;28;20128;-85
2022/05/27 16:17:56;;;;;;;10.98;3.85;;;20.70;99.90;;;;;;5053565;28;20053;-82
2022/05/27 16:20:32;;;;;;;16.55;5.97;;;20.70;99.90;;;;;;5050100;28;20072;-85
2022/05/27 16:23:01;;;;;;;22.48;10.18;;;20.70;99.90;;;;;;5047538;28;20046;-82
2022/05/27 16:25:30;;;;;;;23.15;9.45;;;20.70;99.90;;;;;;5050535;28;20049;-82
2022/05/27 16:27:59;;;;;;;12.20;4.63;;;20.70;99.90;;;;;;5052990;28;20495;-85
2022/05/27 16:30:31;;;;;;;7.03;2.88;;;20.70;99.90;;;;;;5052215;28;20080;-84
2022/05/27 16:33:00;;;;;;;3.08;1.10;;;20.60;99.90;;;;;;5049128;28;20111;-84
2022/05/27 16:35:28;;;;;;;3.83;1.20;;;20.60;99.90;;;;;;5043832;28;20045;-83
2022/05/27 16:37:56;;;;;;;2.10;1.30;;;20.50;99.90;;;;;;5049281;28;20057;-84
2022/05/27 16:40:24;;;;;;;1.98;1.05;;;20.50;99.90;;;;;;5048768;28;20049;-85
2022/05/27 16:42:51;;;;;;;2.42;0.93;;;20.40;99.90;;;;;;5068247;28;20517;-82
2022/05/27 16:45:20;;;;;;;2.28;0.93;;;20.40;99.90;;;;;;5053010;28;20055;-84
2022/05/27 16:47:47;;;;;;;1.20;0.73;;;20.40;99.90;;;;;;5055550;28;20049;-84
2022/05/27 16:50:20;;;;;;;2.88;0.88;;;20.40;99.90;;;;;;5047216;28;20089;-82
2022/05/27 16:52:47;;;;;;;1.52;0.65;;;20.40;99.90;;;;;;5046568;28;20132;-84
2022/05/27 16:55:15;;;;;;;1.90;0.98;;;20.40;99.90;;;;;;5050126;28;20396;-81
2022/05/27 16:57:41;;;;;;;4.30;1.75;;;20.40;99.90;;;;;;5056344;28;20128;-84
2022/05/27 17:00:14;;;;;;;1.75;1.00;;;20.40;99.90;;;;;;5047326;28;20045;-83
2022/05/27 17:02:41;;;;;;;2.83;0.80;;;20.40;99.90;;;;;;5050156;28;20070;-84
2022/05/27 17:05:16;;;;;;;2.97;1.05;;;20.30;99.90;;;;;;5063294;28;20077;-81
2022/05/27 17:07:43;;;;;;;1.70;0.73;;;20.30;99.90;;;;;;5056167;28;20055;-83
2022/05/27 17:10:11;;;;;;;1.95;1.15;;;20.30;99.90;;;;;;5046834;28;20045;-83
2022/05/27 17:12:38;;;;;;;5.72;1.90;;;20.30;99.90;;;;;;5046417;28;20044;-84
2022/05/27 17:15:07;;;;;;;8.88;2.67;;;20.30;99.90;;;;;;5046804;28;20077;-84
2022/05/27 17:17:46;;;;;;;5.88;2.58;;;20.30;99.90;;;;;;5055438;28;20132;-83
2022/05/27 17:20:13;;;;;;;6.95;3.25;;;20.30;99.90;;;;;;5052778;28;20055;-83
2022/05/27 17:22:43;;;;;;;4.72;2.00;;;20.20;99.90;;;;;;5050106;28;20059;-83
2022/05/27 17:25:11;;;;;;;8.38;2.55;;;20.20;99.90;;;;;;5047227;28;20052;-82
2022/05/27 17:27:38;;;;;;;4.68;1.60;;;20.20;99.90;;;;;;5048163;28;20080;-83
2022/05/27 17:30:05;;;;;;;2.78;1.13;;;20.10;99.90;;;;;;5046489;28;20077;-81
2022/05/27 17:32:32;;;;;;;2.83;1.00;;;20.10;99.90;;;;;;5052750;28;20045;-83
2022/05/27 17:34:59;;;;;;;1.15;1.02;;;20.10;99.90;;;;;;5049518;28;20102;-84
2022/05/27 17:37:26;;;;;;;2.38;1.13;;;20.00;99.90;;;;;;5051814;28;20047;-81
2022/05/27 17:39:52;;;;;;;1.67;0.70;;;20.10;99.90;;;;;;5051969;28;20055;-85
2022/05/27 17:42:19;;;;;;;2.28;1.00;;;20.10;99.90;;;;;;5050521;28;20501;-84
2022/05/27 17:44:45;;;;;;;7.70;2.30;;;20.00;99.90;;;;;;5049153;28;20045;-84
2022/05/27 17:52:43;;;;;;;7.28;2.88;;;20.10;99.90;;;;;;5051239;28;20095;-82
2022/05/27 17:55:10;;;;;;;3.38;1.50;;;20.10;99.90;;;;;;5046764;28;20406;-82
2022/05/27 17:57:36;;;;;;;4.57;1.35;;;20.10;99.90;;;;;;5053644;28;20041;-83
2022/05/27 18:00:05;;;;;;;2.60;0.75;;;20.00;99.90;;;;;;5045915;28;20050;-84
2022/05/27 18:02:31;;;;;;;1.55;0.70;;;19.90;99.90;;;;;;5053934;28;20077;-82
2022/05/27 18:04:58;;;;;;;1.05;0.68;;;19.90;99.90;;;;;;5048822;28;20049;-82
2022/05/27 18:07:25;;;;;;;1.40;0.60;;;19.70;99.90;;;;;;5045689;28;20055;-84
2022/05/27 18:09:51;;;;;;;3.00;0.60;;;19.70;99.90;;;;;;5049185;28;20075;-84
2022/05/27 18:12:20;;;;;;;0.60;0.50;;;19.70;99.90;;;;;;5048955;28;20045;-83
2022/05/27 18:14:46;;;;;;;0.70;0.60;;;19.60;99.90;;;;;;5046650;28;20045;-84
2022/05/27 18:17:13;;;;;;;1.90;0.57;;;19.60;99.90;;;;;;5048343;28;20049;-82
2022/05/27 18:19:40;;;;;;;1.45;0.50;;;19.50;99.90;;;;;;5048055;28;20132;-84
2022/05/27 18:22:06;;;;;;;1.63;0.50;;;19.40;99.90;;;;;;5046966;28;20060;-82
2022/05/27 18:24:33;;;;;;;1.67;0.50;;;19.40;99.90;;;;;;5051305;28;20140;-83
2022/05/27 18:27:00;;;;;;;1.00;0.60;;;19.40;99.90;;;;;;5050306;28;20075;-81
2022/05/27 18:29:28;;;;;;;1.70;0.50;;;19.40;99.90;;;;;;5046870;28;20049;-84
2022/05/27 18:31:55;;;;;;;3.35;0.50;;;19.40;99.90;;;;;;5048951;28;20128;-84
2022/05/27 18:34:22;;;;;;;0.63;0.40;;;19.30;99.90;;;;;;5047416;28;20077;-84
2022/05/27 18:36:48;;;;;;;2.67;0.63;;;19.30;99.90;;;;;;5052176;28;20055;-83
2022/05/27 18:39:15;;;;;;;0.45;0.38;;;19.30;99.90;;;;;;5046542;28;20064;-82
2022/05/27 18:41:41;;;;;;;0.73;0.60;;;19.30;99.90;;;;;;5048264;28;20051;-83
2022/05/27 18:44:08;;;;;;;1.30;0.55;;;19.30;99.90;;;;;;5042931;28;20136;-84
2022/05/27 18:46:35;;;;;;;3.55;0.60;;;19.20;99.90;;;;;;5046408;28;20053;-81